Airfield :
LOGIN :

Register | Disclaimer

   EN    FR    IT 

 










Legend :    VFR   Marginal VFR   IFR   Intensive IFR   Very Intensive IFR
Visi :
Ceiling :
>= 8 km
>= 3000ft
5 to 8 km
1000 to 3000 ft
1500m to 5 km
500 to 1000 ft
800 to 1500m
200 to 500 ft
< 800m
< 200 ft
Symbols :   Thunderstorms  Fog  Heavy snow  Heavy precipitations  Wind > 20 kt
SIGMETs :     Misc.  Thunderstorms  Icing  Turbulence  Mountain Waves  Volcanic Ashes






- Airport Elevation : 80 ft
- IATA code : LPL


EGGP - Liverpool John Lennon

CURRENT METAR :
  • 120620Z 14009KT 100V170 CAVOK 03/02 Q0992

EXPIRED METARs :
  • 120550Z 15010KT CAVOK 04/02 Q0992
  • 120520Z 17010KT CAVOK 04/03 Q0993
  • 120450Z 17010KT CAVOK 04/03 Q0994
  • 120420Z 17010KT CAVOK 03/03 Q0994
  • 120350Z 16008KT CAVOK 03/02 Q0995

TAF TAF EGGP
Valid from the 12 at 06:00 until the 13 at 06:00 UTC


120458Z 1206/1306 15009KT 9999 FEW015 SCT030
TEMPO 1208/1218 5000 RADZ BKN008
PROB30
TEMPO 1209/1218 2000 +RADZ BKN004
PROB30
TEMPO 1209/1213 16015G25KT
BECMG 1212/1215 24008KT
TEMPO 1218/1306 6000 SHRA BKN014
PROB30
TEMPO 1300/1306 3000 +SHRA BKN009
ATIS : +44 151 907 2000 (option 5 or ext 5150)
Met : +44 871 750 5150



MET'MAP, your aeronautical weather chart ! - Copyright ORBIFLY December 2007 - Disclaimer

ORBIFLY MET'MAP TEAM :

Programming & Development : Alexandra Zaïnal
Concept & original design : Baudouin d'Aumeries
Assistance for programming : Marc-Olivier Méhu
Technical & hardware support : Manuel Goepfert

Contact : metmap@orbifly.com




SOURCES & CREDITS :

   NOAA